createdAt,value
2018-04-10T00:00:05.517Z,44.94
2018-04-10T00:02:33.836Z,46.05
2018-04-10T00:05:02.197Z,48.29
2018-04-10T00:07:30.541Z,47.54
2018-04-10T00:09:58.888Z,46.89
2018-04-10T00:12:27.210Z,46.43
2018-04-10T00:14:55.582Z,45.16
2018-04-10T00:17:23.901Z,45.78
2018-04-10T00:19:52.241Z,45.07
2018-04-10T00:22:20.618Z,45.28
2018-04-10T00:24:48.994Z,46.73
2018-04-10T00:27:17.375Z,47.27
2018-04-10T00:29:45.730Z,47.43
2018-04-10T00:32:14.129Z,46.85
2018-04-10T00:34:42.469Z,47.33
2018-04-10T00:37:10.882Z,47.97
2018-04-10T00:39:39.189Z,48.06
2018-04-10T00:42:07.528Z,48.75
2018-04-10T00:44:35.853Z,48.64
2018-04-10T00:47:04.204Z,48.51
2018-04-10T00:49:32.521Z,48.21
2018-04-10T00:52:00.857Z,48.24
2018-04-10T00:54:29.195Z,49.28
2018-04-10T00:56:57.686Z,48.23
2018-04-10T00:59:26.077Z,48.39
2018-04-10T01:01:54.451Z,48.85
2018-04-10T01:04:22.833Z,49.16
2018-04-10T01:06:51.184Z,48.95
2018-04-10T01:09:19.588Z,49.03
2018-04-10T01:11:47.931Z,48.39
2018-04-10T01:14:16.249Z,48.61
2018-04-10T01:16:44.587Z,48.79
2018-04-10T01:19:12.884Z,49.10
2018-04-10T01:21:41.238Z,49.46
2018-04-10T01:24:09.656Z,49.56
2018-04-10T01:26:38.032Z,48.92
2018-04-10T01:29:06.365Z,49.05
2018-04-10T01:31:34.710Z,48.94
2018-04-10T01:34:03.070Z,49.15
2018-04-10T01:36:31.391Z,48.58
2018-04-10T01:38:59.727Z,49.78
2018-04-10T01:41:28.123Z,49.58
2018-04-10T01:43:56.447Z,48.98
2018-04-10T01:46:24.769Z,49.21
2018-04-10T01:48:53.178Z,47.14
2018-04-10T01:51:21.535Z,45.05
2018-04-10T01:53:49.865Z,44.46
2018-04-10T01:56:18.176Z,44.14
2018-04-10T01:58:46.505Z,44.12
2018-04-10T02:01:14.922Z,44.30
2018-04-10T02:03:43.300Z,46.08
2018-04-10T02:06:11.622Z,48.17
2018-04-10T02:08:39.986Z,45.96
2018-04-10T02:11:08.289Z,45.93
2018-04-10T02:13:36.640Z,45.43
2018-04-10T02:16:04.992Z,46.78
2018-04-10T02:18:33.307Z,47.67
2018-04-10T02:21:01.748Z,47.17
2018-04-10T02:23:30.072Z,46.08
2018-04-10T02:25:58.419Z,46.88
2018-04-10T02:28:26.732Z,47.63
2018-04-10T02:30:55.159Z,46.26
2018-04-10T02:33:23.472Z,46.10
2018-04-10T02:35:51.803Z,46.35
2018-04-10T02:38:20.122Z,46.26
2018-04-10T02:40:48.470Z,46.42
2018-04-10T02:43:16.789Z,46.86
2018-04-10T02:45:45.124Z,47.88
2018-04-10T02:48:13.492Z,47.55
2018-04-10T02:50:41.873Z,47.09
2018-04-10T02:53:10.257Z,47.43
2018-04-10T02:55:38.594Z,47.62
2018-04-10T02:58:06.905Z,47.10
2018-04-10T03:00:35.269Z,47.09
2018-04-10T03:03:03.642Z,47.14
2018-04-10T03:05:31.960Z,47.34
2018-04-10T03:08:00.312Z,47.10
2018-04-10T03:10:28.792Z,47.56
2018-04-10T03:12:57.136Z,47.30
2018-04-10T03:15:25.464Z,46.86
2018-04-10T03:17:53.792Z,46.76
2018-04-10T03:20:22.096Z,46.71
2018-04-10T03:22:50.443Z,46.62
2018-04-10T03:25:18.754Z,46.58
2018-04-10T03:27:47.094Z,46.79
2018-04-10T03:30:15.433Z,47.35
2018-04-10T03:32:43.765Z,47.20
2018-04-10T03:35:12.075Z,48.82
2018-04-10T03:37:40.462Z,47.89
2018-04-10T03:40:08.761Z,47.14
2018-04-10T03:42:37.096Z,46.91
2018-04-10T03:45:05.486Z,47.29
2018-04-10T03:47:34.000Z,47.89
2018-04-10T03:50:02.321Z,48.32
2018-04-10T03:52:30.658Z,47.76
2018-04-10T03:54:59.024Z,47.62
2018-04-10T03:57:27.326Z,47.66
2018-04-10T03:59:55.672Z,47.58
2018-04-10T04:02:23.996Z,47.76
2018-04-10T04:04:52.336Z,47.84
2018-04-10T04:07:20.655Z,48.09
2018-04-10T04:09:49.067Z,48.43
2018-04-10T04:12:17.369Z,48.48
2018-04-10T04:14:45.714Z,49.15
2018-04-10T04:17:25.892Z,49.07
2018-04-10T04:20:06.200Z,48.93
2018-04-10T04:22:38.505Z,49.08
2018-04-10T04:25:06.838Z,49.41
2018-04-10T04:27:35.188Z,49.43
2018-04-10T04:30:03.517Z,49.62
2018-04-10T04:32:31.832Z,49.58
2018-04-10T04:35:00.488Z,50.07
2018-04-10T04:37:28.813Z,50.15
2018-04-10T04:39:57.120Z,50.06
2018-04-10T04:42:25.468Z,50.21
2018-04-10T04:44:53.787Z,50.43
2018-04-10T04:47:22.185Z,50.74
2018-04-10T04:49:50.499Z,51.04
2018-04-10T04:52:18.884Z,51.42
2018-04-10T04:54:47.185Z,51.25
2018-04-10T04:57:15.605Z,51.22
2018-04-10T04:59:43.997Z,50.99
2018-04-10T05:02:12.340Z,51.43
2018-04-10T05:04:40.656Z,51.47
2018-04-10T05:07:09.000Z,51.84
2018-04-10T05:09:37.328Z,52.19
2018-04-10T05:12:05.668Z,52.17
2018-04-10T05:14:33.993Z,52.25
2018-04-10T05:17:02.339Z,52.40
2018-04-10T05:19:30.769Z,53.02
2018-04-10T05:21:59.177Z,52.58
2018-04-10T05:24:27.550Z,52.70
2018-04-10T05:26:55.888Z,52.38
2018-04-10T05:29:24.224Z,52.09
2018-04-10T05:31:52.560Z,52.18
2018-04-10T05:34:20.913Z,51.87
2018-04-10T05:36:49.245Z,52.09
2018-04-10T05:39:17.592Z,52.07
2018-04-10T05:41:45.908Z,51.78
2018-04-10T05:44:14.252Z,51.94
2018-04-10T05:46:42.690Z,51.98
2018-04-10T05:49:11.020Z,52.18
2018-04-10T05:51:39.348Z,52.12
2018-04-10T05:54:07.727Z,52.17
2018-04-10T05:56:36.050Z,51.91
2018-04-10T05:59:04.453Z,52.09
2018-04-10T06:01:32.784Z,52.16
2018-04-10T06:04:01.129Z,52.25
2018-04-10T06:06:29.460Z,51.90
2018-04-10T06:08:57.803Z,51.91
2018-04-10T06:11:26.176Z,52.26
2018-04-10T06:13:54.503Z,52.39
2018-04-10T06:16:22.880Z,52.30
2018-04-10T06:18:51.228Z,52.42
2018-04-10T06:21:19.689Z,52.15
2018-04-10T06:23:47.980Z,51.91
2018-04-10T06:26:16.394Z,52.13
2018-04-10T06:28:44.819Z,51.55
2018-04-10T06:31:13.152Z,51.75
2018-04-10T06:33:41.493Z,51.62
2018-04-10T06:36:09.912Z,51.37
2018-04-10T06:38:38.329Z,51.65
2018-04-10T06:41:06.652Z,51.23
2018-04-10T06:43:35.000Z,51.13
2018-04-10T06:46:03.361Z,51.48
2018-04-10T06:48:31.737Z,51.86
2018-04-10T06:51:00.054Z,51.39
2018-04-10T06:53:28.452Z,51.37
2018-04-10T06:55:56.779Z,51.54
2018-04-10T06:58:25.211Z,52.00
2018-04-10T07:00:53.601Z,51.94
2018-04-10T07:03:21.961Z,53.12
2018-04-10T07:05:50.277Z,53.39
2018-04-10T07:08:18.741Z,53.49
2018-04-10T07:10:47.092Z,53.36
2018-04-10T07:13:15.521Z,52.88
2018-04-10T07:15:43.809Z,53.07
2018-04-10T07:18:12.160Z,52.71
2018-04-10T07:20:40.490Z,53.20
2018-04-10T07:23:08.853Z,52.96
2018-04-10T07:25:37.193Z,53.21
2018-04-10T07:28:06.612Z,52.84
2018-04-10T07:30:34.939Z,52.51
2018-04-10T07:33:03.349Z,52.25
2018-04-10T07:35:31.697Z,52.29
2018-04-10T07:38:00.033Z,51.62
2018-04-10T07:40:28.370Z,52.21
2018-04-10T07:42:56.694Z,51.70
2018-04-10T07:45:25.056Z,52.03
2018-04-10T07:47:53.397Z,52.13
2018-04-10T07:50:21.734Z,52.11
2018-04-10T07:52:50.056Z,52.88
2018-04-10T07:55:18.404Z,52.34
2018-04-10T07:57:46.727Z,52.20
2018-04-10T08:00:15.163Z,53.10
2018-04-10T08:02:43.464Z,53.56
2018-04-10T08:05:11.835Z,52.70
2018-04-10T08:07:40.156Z,52.30
2018-04-10T08:10:08.492Z,53.25
2018-04-10T08:12:36.871Z,52.82
2018-04-10T08:15:05.202Z,53.44
2018-04-10T08:17:33.596Z,52.67
2018-04-10T08:20:01.936Z,51.94
2018-04-10T08:22:30.293Z,51.28
2018-04-10T08:24:58.620Z,51.35
2018-04-10T08:27:26.984Z,51.66
2018-04-10T08:29:55.305Z,51.44
2018-04-10T08:32:24.601Z,51.07
2018-04-10T08:34:52.933Z,52.30
2018-04-10T08:37:21.277Z,52.18
2018-04-10T08:39:49.627Z,51.78
2018-04-10T08:42:17.972Z,50.56
2018-04-10T08:44:46.402Z,50.19
2018-04-10T08:47:14.790Z,49.87
2018-04-10T08:49:43.122Z,49.51
2018-04-10T08:52:11.485Z,49.40
2018-04-10T08:54:39.820Z,49.33
2018-04-10T08:57:08.129Z,49.78
2018-04-10T08:59:36.584Z,48.64
2018-04-10T09:02:04.953Z,48.88
2018-04-10T09:04:33.303Z,48.53
2018-04-10T09:07:01.629Z,48.32
2018-04-10T09:09:33.883Z,47.99
2018-04-10T09:12:09.155Z,48.11
2018-04-10T09:14:37.528Z,48.24
2018-04-10T09:17:05.841Z,48.26
2018-04-10T09:19:34.277Z,49.09
2018-04-10T09:22:02.600Z,48.04
2018-04-10T09:24:32.852Z,47.62
2018-04-10T09:27:01.174Z,47.04
2018-04-10T09:29:29.614Z,47.49
2018-04-10T09:31:57.994Z,47.11
2018-04-10T09:34:26.362Z,47.35
2018-04-10T09:36:54.721Z,48.31
2018-04-10T09:39:23.045Z,48.33
2018-04-10T09:41:51.397Z,47.96
2018-04-10T09:44:19.717Z,47.92
2018-04-10T09:46:48.151Z,47.61
2018-04-10T09:49:16.500Z,47.60
2018-04-10T09:51:44.904Z,47.88
2018-04-10T09:54:13.229Z,47.05
2018-04-10T09:56:41.702Z,46.76
2018-04-10T09:59:10.082Z,46.85
2018-04-10T10:01:38.494Z,46.74
2018-04-10T10:04:06.820Z,46.61
2018-04-10T10:06:36.078Z,46.24
2018-04-10T10:09:04.416Z,46.12
2018-04-10T10:11:32.760Z,45.64
2018-04-10T10:14:01.096Z,45.72
2018-04-10T10:16:29.462Z,46.10
2018-04-10T10:18:57.822Z,47.07
2018-04-10T10:21:26.185Z,47.53
2018-04-10T10:23:54.509Z,46.64
2018-04-10T10:26:22.869Z,45.87
2018-04-10T10:28:51.190Z,45.53
2018-04-10T10:31:19.512Z,45.32
2018-04-10T10:33:48.889Z,44.90
2018-04-10T10:36:17.292Z,45.02
2018-04-10T10:38:45.728Z,44.89
2018-04-10T10:41:14.116Z,44.79
2018-04-10T10:43:42.481Z,44.02
2018-04-10T10:46:10.799Z,43.37
2018-04-10T10:48:39.221Z,44.09
2018-04-10T10:51:07.559Z,43.39
2018-04-10T10:53:35.909Z,43.46
2018-04-10T10:56:04.239Z,43.20
2018-04-10T10:58:32.606Z,43.35
2018-04-10T11:01:00.955Z,43.08
2018-04-10T11:03:29.312Z,41.97
2018-04-10T11:05:57.631Z,42.51
2018-04-10T11:08:26.001Z,42.30
2018-04-10T11:10:54.392Z,42.29
2018-04-10T11:13:22.766Z,42.11
2018-04-10T11:15:51.086Z,41.92
2018-04-10T11:18:19.472Z,40.82
2018-04-10T11:20:47.916Z,40.55
2018-04-10T11:23:16.294Z,41.02
2018-04-10T11:25:44.620Z,41.17
2018-04-10T11:28:12.949Z,40.62
2018-04-10T11:30:41.383Z,40.46
2018-04-10T11:33:09.753Z,41.11
2018-04-10T11:35:38.121Z,40.84
2018-04-10T11:38:06.519Z,40.70
2018-04-10T11:40:35.198Z,40.38
2018-04-10T11:43:03.613Z,39.84
2018-04-10T11:45:31.954Z,40.03
2018-04-10T11:48:00.336Z,40.82
2018-04-10T11:50:28.709Z,40.41
2018-04-10T11:52:57.049Z,40.55
2018-04-10T11:55:25.475Z,40.01
2018-04-10T11:57:53.815Z,40.74
2018-04-10T12:00:22.162Z,39.78
2018-04-10T12:02:50.486Z,39.83
2018-04-10T12:05:18.856Z,40.25
2018-04-10T12:07:47.266Z,39.17
2018-04-10T12:10:15.641Z,39.05
2018-04-10T12:12:43.997Z,39.59
2018-04-10T12:15:12.400Z,39.30
2018-04-10T12:17:40.876Z,39.45
2018-04-10T12:20:09.287Z,39.25
2018-04-10T12:22:37.733Z,39.52
2018-04-10T12:25:06.065Z,39.54
2018-04-10T12:27:34.413Z,39.08
2018-04-10T12:30:02.794Z,38.66
2018-04-10T12:32:31.154Z,38.60
2018-04-10T12:34:59.516Z,38.70
2018-04-10T12:37:27.892Z,38.49
2018-04-10T12:39:56.271Z,38.15
2018-04-10T12:42:24.670Z,37.99
2018-04-10T12:44:53.129Z,37.34
2018-04-10T12:47:21.485Z,36.62
2018-04-10T12:49:49.830Z,35.09
2018-04-10T12:52:18.173Z,32.89
2018-04-10T12:54:46.512Z,32.83
2018-04-10T12:57:14.852Z,33.19
2018-04-10T12:59:43.188Z,32.31
2018-04-10T13:02:11.597Z,31.12
2018-04-10T13:04:39.923Z,31.01
2018-04-10T13:07:08.268Z,31.09
2018-04-10T13:09:36.619Z,31.51
2018-04-10T13:12:04.947Z,33.99
2018-04-10T13:14:33.361Z,33.70
2018-04-10T13:17:01.789Z,32.41
2018-04-10T13:19:30.191Z,31.90
2018-04-10T13:21:58.515Z,31.06
2018-04-10T13:24:26.924Z,31.35
2018-04-10T13:26:55.244Z,31.23
2018-04-10T13:29:23.587Z,31.35
2018-04-10T13:31:52.009Z,31.49
2018-04-10T13:34:20.397Z,31.94
2018-04-10T13:36:48.808Z,31.43
2018-04-10T13:39:17.247Z,30.49
2018-04-10T13:41:45.564Z,30.72
2018-04-10T13:44:13.925Z,30.72
2018-04-10T13:46:42.425Z,30.92
2018-04-10T13:49:10.741Z,31.17
2018-04-10T13:51:39.165Z,31.33
2018-04-10T13:54:07.521Z,32.07
2018-04-10T13:56:35.897Z,32.24
2018-04-10T13:59:04.241Z,31.57
2018-04-10T14:01:32.660Z,31.07
2018-04-10T14:04:01.000Z,31.38
2018-04-10T14:06:29.390Z,30.06
2018-04-10T14:08:57.716Z,31.05
2018-04-10T14:11:26.220Z,31.62
2018-04-10T14:13:54.528Z,32.18
2018-04-10T14:16:22.965Z,32.21
2018-04-10T14:18:51.272Z,31.98
2018-04-10T14:21:19.632Z,31.75
2018-04-10T14:23:47.953Z,31.89
2018-04-10T14:26:16.291Z,31.38
2018-04-10T14:28:44.624Z,31.19
2018-04-10T14:31:12.968Z,30.71
2018-04-10T14:33:41.294Z,31.02
2018-04-10T14:36:09.730Z,30.52
2018-04-10T14:38:38.073Z,29.62
2018-04-10T14:41:06.420Z,29.96
2018-04-10T14:43:34.792Z,29.76
2018-04-10T14:46:03.166Z,30.15
2018-04-10T14:48:31.538Z,30.52
2018-04-10T14:50:59.849Z,31.84
2018-04-10T14:53:28.305Z,31.35
2018-04-10T14:55:56.613Z,31.82
2018-04-10T14:58:24.991Z,32.68
2018-04-10T15:00:53.371Z,32.93
2018-04-10T15:03:21.796Z,32.58
2018-04-10T15:05:50.300Z,32.40
2018-04-10T15:08:18.640Z,32.27
2018-04-10T15:10:46.972Z,32.32
2018-04-10T15:13:15.313Z,32.05
2018-04-10T15:15:43.633Z,30.60
2018-04-10T15:18:11.991Z,30.68
2018-04-10T15:20:40.345Z,29.96
2018-04-10T15:23:08.698Z,29.40
2018-04-10T15:25:37.046Z,29.21
2018-04-10T15:28:05.425Z,28.56
2018-04-10T15:30:33.769Z,28.75
2018-04-10T15:33:02.121Z,29.23
2018-04-10T15:35:30.448Z,29.65
2018-04-10T15:37:58.796Z,30.32
2018-04-10T15:40:27.177Z,31.15
2018-04-10T15:42:55.559Z,30.31
2018-04-10T15:45:23.899Z,30.79
2018-04-10T15:47:52.282Z,30.88
2018-04-10T15:50:20.677Z,31.12
2018-04-10T15:52:49.012Z,31.54
2018-04-10T15:55:17.483Z,31.39
2018-04-10T15:57:45.788Z,31.27
2018-04-10T16:00:14.140Z,31.65
2018-04-10T16:02:42.494Z,32.07
2018-04-10T16:05:10.822Z,32.85
2018-04-10T16:07:39.192Z,33.28
2018-04-10T16:10:07.516Z,34.16
2018-04-10T16:12:36.769Z,34.00
2018-04-10T16:15:05.190Z,35.01
2018-04-10T16:17:33.564Z,35.23
2018-04-10T16:20:02.018Z,35.82
2018-04-10T16:22:30.416Z,36.87
2018-04-10T16:24:58.806Z,37.39
2018-04-10T16:27:27.115Z,37.58
2018-04-10T16:29:55.497Z,37.84
2018-04-10T16:32:23.797Z,37.88
2018-04-10T16:34:52.221Z,37.82
2018-04-10T16:37:20.533Z,37.83
2018-04-10T16:39:48.967Z,38.18
2018-04-10T16:42:17.304Z,38.00
2018-04-10T16:44:45.660Z,37.91
2018-04-10T16:47:14.043Z,38.46
2018-04-10T16:49:42.416Z,38.80
2018-04-10T16:52:10.856Z,38.36
2018-04-10T16:54:39.178Z,38.46
2018-04-10T16:57:07.512Z,38.74
2018-04-10T16:59:35.824Z,38.89
2018-04-10T17:02:04.214Z,38.87
2018-04-10T17:04:32.509Z,38.78
2018-04-10T17:07:00.969Z,38.97
2018-04-10T17:09:30.339Z,39.18
2018-04-10T17:11:58.697Z,39.32
2018-04-10T17:14:27.009Z,39.39
2018-04-10T17:16:55.462Z,39.75
2018-04-10T17:19:23.770Z,39.88
2018-04-10T17:21:52.113Z,40.07
2018-04-10T17:24:20.462Z,40.63
2018-04-10T17:26:48.784Z,40.90
2018-04-10T17:29:17.108Z,40.75
2018-04-10T17:31:45.478Z,40.71
2018-04-10T17:34:13.822Z,40.84
2018-04-10T17:36:42.175Z,41.19
2018-04-10T17:39:10.570Z,41.26
2018-04-10T17:41:38.917Z,41.88
2018-04-10T17:44:07.226Z,42.00
2018-04-10T17:46:35.617Z,41.84
2018-04-10T17:49:03.927Z,42.75
2018-04-10T17:51:33.113Z,42.21
2018-04-10T17:54:01.430Z,42.26
2018-04-10T17:56:29.745Z,42.18
2018-04-10T17:58:58.072Z,42.34
2018-04-10T18:01:26.408Z,43.09
2018-04-10T18:03:54.748Z,43.04
2018-04-10T18:06:23.177Z,43.09
2018-04-10T18:08:51.509Z,43.41
2018-04-10T18:11:19.837Z,43.50
2018-04-10T18:13:48.181Z,43.15
2018-04-10T18:16:16.501Z,43.25
2018-04-10T18:18:44.917Z,43.25
2018-04-10T18:21:13.240Z,43.05
2018-04-10T18:23:41.598Z,43.26
2018-04-10T18:26:09.903Z,43.46
2018-04-10T18:28:38.257Z,43.82
2018-04-10T18:31:06.615Z,43.97
2018-04-10T18:33:34.947Z,43.94
2018-04-10T18:36:03.257Z,44.20
2018-04-10T18:38:31.580Z,44.78
2018-04-10T18:40:59.929Z,45.35
2018-04-10T18:43:28.336Z,45.21
2018-04-10T18:45:56.638Z,44.78
2018-04-10T18:48:24.976Z,43.99
2018-04-10T18:50:53.316Z,44.48
2018-04-10T18:53:21.716Z,44.33
2018-04-10T18:55:50.065Z,44.50
2018-04-10T18:58:18.432Z,46.10
2018-04-10T19:00:46.752Z,48.71
2018-04-10T19:03:15.070Z,48.58
2018-04-10T19:05:43.423Z,48.77
2018-04-10T19:08:11.767Z,53.00
2018-04-10T19:10:40.115Z,56.13
2018-04-10T19:13:08.423Z,55.96
2018-04-10T19:15:36.797Z,53.65
2018-04-10T19:18:05.161Z,54.27
2018-04-10T19:20:33.561Z,55.31
2018-04-10T19:23:01.934Z,56.65
2018-04-10T19:25:30.289Z,57.45
2018-04-10T19:27:58.630Z,59.27
2018-04-10T19:30:26.976Z,59.10
2018-04-10T19:32:55.340Z,59.26
2018-04-10T19:35:23.700Z,59.62
2018-04-10T19:37:52.095Z,60.12
2018-04-10T19:40:20.460Z,60.11
2018-04-10T19:42:48.785Z,60.08
2018-04-10T19:45:17.085Z,60.42
2018-04-10T19:47:45.519Z,62.19
2018-04-10T19:50:13.838Z,61.17
2018-04-10T19:52:42.189Z,60.21
2018-04-10T19:55:10.552Z,60.17
2018-04-10T19:57:38.901Z,60.02
2018-04-10T20:00:07.216Z,60.04
2018-04-10T20:02:35.591Z,61.62
2018-04-10T20:05:03.908Z,60.73
2018-04-10T20:07:32.343Z,62.26
2018-04-10T20:10:00.661Z,61.08
2018-04-10T20:12:29.002Z,61.31
2018-04-10T20:14:57.320Z,61.60
2018-04-10T20:17:25.761Z,61.11
2018-04-10T20:19:54.074Z,62.00
2018-04-10T20:22:22.446Z,63.01
2018-04-10T20:24:50.784Z,62.42
2018-04-10T20:27:19.148Z,62.48
2018-04-10T20:29:47.444Z,63.06
2018-04-10T20:32:15.811Z,63.83
2018-04-10T20:34:44.193Z,64.01
2018-04-10T20:37:12.517Z,65.00
2018-04-10T20:39:40.955Z,63.85
2018-04-10T20:42:09.328Z,63.77
2018-04-10T20:44:37.673Z,64.07
2018-04-10T20:47:05.988Z,63.71
2018-04-10T20:49:34.344Z,65.30
2018-04-10T20:52:02.662Z,64.61
2018-04-10T20:54:31.117Z,65.11
2018-04-10T20:56:59.509Z,65.01
2018-04-10T20:59:27.861Z,64.88
2018-04-10T21:01:56.181Z,64.43
2018-04-10T21:04:24.637Z,64.94
2018-04-10T21:06:53.013Z,64.01
2018-04-10T21:09:21.357Z,64.19
2018-04-10T21:11:49.763Z,63.31
2018-04-10T21:14:18.137Z,63.40
2018-04-10T21:16:46.466Z,63.56
2018-04-10T21:19:14.795Z,63.86
2018-04-10T21:21:43.176Z,63.94
2018-04-10T21:24:11.551Z,64.55
2018-04-10T21:26:39.899Z,64.46
2018-04-10T21:29:08.231Z,64.95
2018-04-10T21:31:36.590Z,65.51
2018-04-10T21:34:04.975Z,65.72
2018-04-10T21:36:33.332Z,66.83
2018-04-10T21:39:01.661Z,67.00
2018-04-10T21:41:30.061Z,66.93
2018-04-10T21:43:58.412Z,66.69
2018-04-10T21:46:26.757Z,67.65
2018-04-10T21:48:55.138Z,67.92
2018-04-10T21:51:23.488Z,67.48
2018-04-10T21:53:51.826Z,68.65
2018-04-10T21:56:20.163Z,68.30
2018-04-10T21:58:48.483Z,67.79
2018-04-10T22:01:16.829Z,68.08
2018-04-10T22:03:45.205Z,67.57
2018-04-10T22:06:13.685Z,67.08
2018-04-10T22:08:42.060Z,67.88
2018-04-10T22:11:10.480Z,67.60
2018-04-10T22:13:38.817Z,68.39
2018-04-10T22:16:07.237Z,68.89
2018-04-10T22:18:35.585Z,69.00
2018-04-10T22:21:03.926Z,68.20
2018-04-10T22:23:32.272Z,68.44
2018-04-10T22:26:00.611Z,68.71
2018-04-10T22:28:28.960Z,69.02
2018-04-10T22:30:57.279Z,70.28
2018-04-10T22:33:25.723Z,69.55
2018-04-10T22:35:54.044Z,69.20
2018-04-10T22:38:22.398Z,70.68
2018-04-10T22:40:50.756Z,70.56
2018-04-10T22:43:19.116Z,70.72
2018-04-10T22:45:47.470Z,71.14
2018-04-10T22:48:15.784Z,69.97
2018-04-10T22:50:44.176Z,68.95
2018-04-10T22:53:12.490Z,68.65
2018-04-10T22:55:40.904Z,69.38
2018-04-10T22:58:09.300Z,69.70
2018-04-10T23:00:50.058Z,70.06
2018-04-10T23:03:18.369Z,69.97
2018-04-10T23:05:46.814Z,69.72
2018-04-10T23:08:15.140Z,69.33
2018-04-10T23:10:43.488Z,69.12
2018-04-10T23:13:11.862Z,70.54
2018-04-10T23:15:40.204Z,70.13
2018-04-10T23:18:08.621Z,69.55
2018-04-10T23:20:36.990Z,69.53
2018-04-10T23:23:05.319Z,69.25
2018-04-10T23:25:33.668Z,69.60
2018-04-10T23:28:02.057Z,69.55
2018-04-10T23:30:30.431Z,71.01
2018-04-10T23:32:58.806Z,71.69
2018-04-10T23:35:27.189Z,71.28
2018-04-10T23:37:55.540Z,71.24
2018-04-10T23:40:23.865Z,70.97
2018-04-10T23:42:52.220Z,73.08
2018-04-10T23:45:20.544Z,71.82
2018-04-10T23:47:48.898Z,72.59
2018-04-10T23:50:17.219Z,71.96
2018-04-10T23:52:46.545Z,71.86
2018-04-10T23:55:14.929Z,72.67
2018-04-10T23:57:43.281Z,72.62
